Time;durP1;ratioP1;P1;durP2;ratioP2;P2;SDS_P1;SDS_P2;PMS_P1;PMS_P2;Temp;Humidity;BMP_temperature;BMP_pressure;BME280_temperature;BME280_humidity;BME280_pressure;Samples;Min_cycle;Max_cycle;Signal;HPM_P1;HPM_P2
2022/10/07 00:00:46;;;;;;;25.15;14.27;;;13.00;99.90;;;;;;4964651;28;20655;-57
2022/10/07 00:03:13;;;;;;;17.75;10.82;;;13.00;99.90;;;;;;4959511;28;20066;-57
2022/10/07 00:05:40;;;;;;;19.27;11.50;;;13.00;99.90;;;;;;4959532;28;20814;-56
2022/10/07 00:08:07;;;;;;;12.93;10.30;;;13.00;99.90;;;;;;4965589;28;20368;-56
2022/10/07 00:10:39;;;;;;;30.52;19.40;;;13.00;99.90;;;;;;4957196;28;20041;-57
2022/10/07 00:13:07;;;;;;;39.17;24.92;;;13.00;99.90;;;;;;4962275;28;20513;-55
2022/10/07 00:15:36;;;;;;;33.13;24.52;;;13.00;99.90;;;;;;4962892;28;20056;-57
2022/10/07 00:18:03;;;;;;;33.25;23.67;;;13.00;99.90;;;;;;4961418;28;20422;-58
2022/10/07 00:20:29;;;;;;;35.80;25.25;;;13.00;99.90;;;;;;4958426;28;20042;-57
2022/10/07 00:22:58;;;;;;;;;;;12.90;99.90;;;;;;4956153;28;20418;-56
2022/10/07 00:25:25;;;;;;;33.75;21.63;;;12.90;99.90;;;;;;4957377;28;20243;-57
2022/10/07 00:27:51;;;;;;;;;;;12.90;99.90;;;;;;4962625;28;20303;-57
2022/10/07 00:30:20;;;;;;;40.13;25.08;;;12.90;99.90;;;;;;4957301;28;20238;-57
2022/10/07 00:32:47;;;;;;;43.35;26.92;;;12.90;99.90;;;;;;4955670;28;20503;-56
2022/10/07 00:35:14;;;;;;;39.45;27.00;;;12.80;99.90;;;;;;4958854;28;20046;-56
2022/10/07 00:37:41;;;;;;;40.95;26.67;;;12.80;99.90;;;;;;4959679;28;20372;-55
2022/10/07 00:40:13;;;;;;;39.08;28.00;;;12.80;99.90;;;;;;4963032;28;20420;-57
2022/10/07 00:42:41;;;;;;;46.38;31.48;;;12.80;99.90;;;;;;4956301;28;20708;-57
2022/10/07 00:45:20;;;;;;;39.28;25.98;;;12.70;99.90;;;;;;4959328;28;20647;-57
2022/10/07 00:47:50;;;;;;;48.92;29.77;;;12.70;99.90;;;;;;4960767;28;20873;-57
2022/10/07 00:50:25;;;;;;;34.15;22.08;;;12.70;99.90;;;;;;4959324;28;20053;-55
2022/10/07 00:53:01;;;;;;;33.45;24.25;;;12.70;99.90;;;;;;4964569;28;20364;-56
2022/10/07 00:55:30;;;;;;;35.75;25.50;;;12.70;99.90;;;;;;4944344;28;20056;-58
2022/10/07 00:58:01;;;;;;;33.95;25.80;;;12.70;99.90;;;;;;4962321;28;20058;-57
2022/10/07 01:00:29;;;;;;;40.83;29.38;;;12.70;99.90;;;;;;4960639;28;20310;-57
2022/10/07 01:02:55;;;;;;;28.88;23.17;;;12.70;99.90;;;;;;4963658;28;20154;-56
2022/10/07 01:05:23;;;;;;;33.03;22.35;;;12.70;99.90;;;;;;4958897;28;20291;-57
2022/10/07 01:07:51;;;;;;;32.80;21.73;;;12.60;99.90;;;;;;4955833;28;20470;-57
2022/10/07 01:10:25;;;;;;;23.92;18.90;;;12.60;99.90;;;;;;4948522;28;20356;-57
2022/10/07 01:12:58;;;;;;;39.28;24.92;;;12.60;99.90;;;;;;4956934;28;20452;-55
2022/10/07 01:15:45;;;;;;;39.03;26.02;;;12.60;99.90;;;;;;4959264;28;20380;-56
2022/10/07 01:18:25;;;;;;;31.00;21.27;;;12.60;99.90;;;;;;4951289;28;20803;-56
2022/10/07 01:21:02;;;;;;;29.65;19.80;;;12.60;99.90;;;;;;4973385;28;20041;-56
2022/10/07 01:23:50;;;;;;;34.80;25.20;;;12.70;99.90;;;;;;4963066;28;20287;-56
2022/10/07 01:26:38;;;;;;;27.90;20.70;;;12.70;99.90;;;;;;4958614;28;20316;-55
2022/10/07 01:29:35;;;;;;;33.13;24.48;;;12.70;99.90;;;;;;4961104;28;20099;-56
2022/10/07 01:32:16;;;;;;;28.67;21.80;;;12.70;99.90;;;;;;4957126;28;20067;-57
2022/10/07 01:34:46;;;;;;;29.13;22.15;;;12.60;99.90;;;;;;4958170;28;20564;-57
2022/10/07 01:37:16;;;;;;;31.83;21.50;;;12.60;99.90;;;;;;4956624;28;20306;-56
2022/10/07 01:39:49;;;;;;;35.28;23.20;;;12.60;99.90;;;;;;4957825;28;20068;-57
2022/10/07 01:42:19;;;;;;;29.25;20.90;;;12.60;99.90;;;;;;4957077;28;20041;-55
2022/10/07 01:44:53;;;;;;;27.95;19.67;;;12.60;99.90;;;;;;4960322;28;20402;-57
2022/10/07 01:47:20;;;;;;;27.08;18.85;;;12.60;99.90;;;;;;4961025;28;20138;-56
2022/10/07 01:49:47;;;;;;;33.05;22.88;;;12.60;99.90;;;;;;4944583;28;20049;-56
2022/10/07 01:52:39;;;;;;;26.35;20.63;;;12.60;99.90;;;;;;4962478;28;20075;-55
2022/10/07 01:55:27;;;;;;;26.00;19.08;;;12.60;99.90;;;;;;4965034;28;20045;-58
2022/10/07 01:58:20;;;;;;;;;;;12.60;99.90;;;;;;4959089;28;20131;-57
2022/10/07 02:00:59;;;;;;;24.30;17.15;;;12.60;99.90;;;;;;4957592;28;20351;-57
2022/10/07 02:03:53;;;;;;;22.40;17.35;;;12.60;99.90;;;;;;4974170;28;20417;-58
2022/10/07 02:06:39;;;;;;;32.85;19.92;;;12.70;99.90;;;;;;4956472;28;20298;-57
2022/10/07 02:09:23;;;;;;;28.23;19.75;;;12.70;99.90;;;;;;4961490;28;20213;-57
2022/10/07 02:12:00;;;;;;;24.92;18.45;;;12.70;99.90;;;;;;4958356;28;20699;-57
2022/10/07 02:14:31;;;;;;;;;;;12.70;99.90;;;;;;4962915;28;20688;-57
2022/10/07 02:17:06;;;;;;;24.17;18.50;;;12.70;99.90;;;;;;4964314;28;20823;-56
2022/10/07 02:19:38;;;;;;;25.35;19.27;;;12.70;99.90;;;;;;4973168;28;20621;-56
2022/10/07 02:22:07;;;;;;;26.33;18.25;;;12.70;99.90;;;;;;4958745;28;20873;-56
2022/10/07 02:24:37;;;;;;;21.30;16.95;;;12.70;99.90;;;;;;4960845;28;20143;-56
2022/10/07 02:27:10;;;;;;;18.35;14.20;;;12.70;99.90;;;;;;4962668;28;20336;-58
2022/10/07 02:29:40;;;;;;;23.80;16.30;;;12.70;99.90;;;;;;4960925;28;20251;-57
2022/10/07 02:32:16;;;;;;;21.98;14.50;;;12.70;99.90;;;;;;4977419;28;20690;-57
2022/10/07 02:34:47;;;;;;;18.90;14.82;;;12.70;99.90;;;;;;4961030;28;20041;-56
2022/10/07 02:37:23;;;;;;;14.35;12.05;;;12.70;99.90;;;;;;4941744;28;20072;-56
2022/10/07 02:39:52;;;;;;;17.45;13.57;;;12.70;99.90;;;;;;4956706;28;20041;-57
2022/10/07 02:42:24;;;;;;;16.17;11.50;;;12.70;99.90;;;;;;4950871;28;20598;-57
2022/10/07 02:45:23;;;;;;;18.38;12.80;;;12.70;99.90;;;;;;4951824;28;20301;-57
2022/10/07 02:48:34;;;;;;;17.92;13.27;;;12.80;99.90;;;;;;4959602;28;20153;-57
2022/10/07 02:51:05;;;;;;;20.52;13.70;;;12.80;99.90;;;;;;4969771;28;20669;-57
2022/10/07 02:53:33;;;;;;;14.15;12.27;;;12.80;99.90;;;;;;4974716;28;20524;-55
2022/10/07 02:56:02;;;;;;;14.88;11.45;;;12.80;99.90;;;;;;4948287;28;20239;-57
2022/10/07 02:58:29;;;;;;;19.70;13.30;;;12.80;99.90;;;;;;4951791;28;20756;-55
2022/10/07 03:01:01;;;;;;;17.38;13.20;;;12.80;99.90;;;;;;4959624;28;20315;-57
2022/10/07 03:03:29;;;;;;;20.35;13.65;;;12.80;99.90;;;;;;4972862;28;20417;-56
2022/10/07 03:06:04;;;;;;;15.60;12.02;;;12.80;99.90;;;;;;4957142;28;20456;-56
2022/10/07 03:08:33;;;;;;;17.25;13.05;;;12.80;99.90;;;;;;4960092;28;20592;-57
2022/10/07 03:11:00;;;;;;;17.27;12.90;;;12.80;99.90;;;;;;4956072;28;20188;-56
2022/10/07 03:13:30;;;;;;;22.15;16.10;;;12.80;99.90;;;;;;4959637;28;20380;-55
2022/10/07 03:16:02;;;;;;;27.60;14.52;;;12.80;99.90;;;;;;4959927;28;20260;-56
2022/10/07 03:18:30;;;;;;;18.45;13.65;;;12.70;99.90;;;;;;4961122;28;20681;-56
2022/10/07 03:21:17;;;;;;;16.80;12.52;;;12.70;99.90;;;;;;4962853;28;20364;-56
2022/10/07 03:23:52;;;;;;;14.77;10.13;;;12.70;99.90;;;;;;4961796;28;20138;-56
2022/10/07 03:26:22;;;;;;;12.70;10.63;;;12.70;99.90;;;;;;4980334;28;20651;-55
2022/10/07 03:28:50;;;;;;;17.98;12.23;;;12.70;99.90;;;;;;4970583;28;20045;-57
2022/10/07 03:31:18;;;;;;;19.45;15.02;;;12.70;99.90;;;;;;4965550;28;20045;-55
2022/10/07 03:33:49;;;;;;;17.70;13.18;;;12.70;99.90;;;;;;4946615;28;20048;-55
2022/10/07 03:36:18;;;;;;;17.85;13.13;;;12.70;99.90;;;;;;4961613;28;20125;-57
2022/10/07 03:38:46;;;;;;;16.83;12.07;;;12.70;99.90;;;;;;4957360;28;20545;-55
2022/10/07 03:41:14;;;;;;;13.93;10.38;;;12.70;99.90;;;;;;4963993;28;20303;-57
2022/10/07 03:43:41;;;;;;;15.98;11.40;;;12.70;99.90;;;;;;4964586;28;20765;-57
2022/10/07 03:46:10;;;;;;;15.70;11.15;;;12.70;99.90;;;;;;4954890;28;20053;-57
2022/10/07 03:48:38;;;;;;;18.45;13.23;;;12.70;99.90;;;;;;4962663;28;20068;-57
2022/10/07 03:51:06;;;;;;;22.63;14.63;;;12.70;99.90;;;;;;4962710;28;20273;-57
2022/10/07 03:53:37;;;;;;;17.23;13.52;;;12.70;99.90;;;;;;4958675;28;20048;-57
2022/10/07 03:56:04;;;;;;;17.48;13.80;;;12.60;99.90;;;;;;4961433;28;20701;-56
2022/10/07 03:58:33;;;;;;;16.95;13.23;;;12.70;99.90;;;;;;4948364;28;20356;-57
2022/10/07 04:01:10;;;;;;;16.45;12.48;;;12.60;99.90;;;;;;4964872;28;20428;-57
2022/10/07 04:03:42;;;;;;;14.02;10.40;;;12.60;99.90;;;;;;4962935;28;20091;-57
2022/10/07 04:06:09;;;;;;;17.67;13.05;;;12.60;99.90;;;;;;4953176;28;20072;-56
2022/10/07 04:08:39;;;;;;;12.02;9.68;;;12.60;99.90;;;;;;4962969;28;20117;-56
2022/10/07 04:11:07;;;;;;;18.77;13.05;;;12.60;99.90;;;;;;4952338;28;20345;-57
2022/10/07 04:13:37;;;;;;;13.25;11.65;;;12.60;99.90;;;;;;4960121;28;20040;-57
2022/10/07 04:16:08;;;;;;;14.20;11.40;;;12.50;99.90;;;;;;4961817;28;20480;-56
2022/10/07 04:18:36;;;;;;;14.30;10.45;;;12.50;99.90;;;;;;4954378;28;20365;-56
2022/10/07 04:21:04;;;;;;;13.85;10.73;;;12.50;99.90;;;;;;4944412;28;20196;-58
2022/10/07 04:23:33;;;;;;;14.40;10.63;;;12.50;99.90;;;;;;4962207;28;20286;-56
2022/10/07 04:26:01;;;;;;;13.95;11.05;;;12.50;99.90;;;;;;4967531;28;20271;-57
2022/10/07 04:28:29;;;;;;;16.05;12.73;;;12.50;99.90;;;;;;4959267;28;20163;-56
2022/10/07 04:31:08;;;;;;;15.27;11.38;;;12.50;99.90;;;;;;4943322;28;20053;-57
2022/10/07 04:33:40;;;;;;;13.90;10.30;;;12.50;99.90;;;;;;4960293;28;20653;-55
2022/10/07 04:36:11;;;;;;;13.00;9.55;;;12.40;99.90;;;;;;4973113;28;20045;-57
2022/10/07 04:38:49;;;;;;;19.45;13.15;;;12.40;99.90;;;;;;4959007;28;20343;-56
2022/10/07 04:41:18;;;;;;;16.77;11.32;;;12.40;99.90;;;;;;4959694;28;20049;-58
2022/10/07 04:43:49;;;;;;;15.32;12.07;;;12.40;99.90;;;;;;4959067;28;20645;-57
2022/10/07 04:46:22;;;;;;;21.02;11.43;;;12.40;99.90;;;;;;4978308;28;20491;-57
2022/10/07 04:48:56;;;;;;;14.70;10.32;;;12.40;99.90;;;;;;4962739;28;20390;-57
2022/10/07 04:51:25;;;;;;;15.15;11.27;;;12.30;99.90;;;;;;4961327;28;20358;-57
2022/10/07 04:53:56;;;;;;;18.15;11.98;;;12.30;99.90;;;;;;4975977;28;20173;-56
2022/10/07 04:56:38;;;;;;;13.80;10.73;;;12.30;99.90;;;;;;4965371;28;20376;-56
2022/10/07 04:59:08;;;;;;;12.23;9.75;;;12.30;99.90;;;;;;4962908;28;20345;-57
2022/10/07 05:01:36;;;;;;;16.00;11.88;;;12.30;99.90;;;;;;4961494;28;20320;-57
2022/10/07 05:04:04;;;;;;;19.73;12.57;;;12.30;99.90;;;;;;4957061;28;20475;-55
2022/10/07 05:06:32;;;;;;;15.43;11.13;;;12.20;99.90;;;;;;4961095;28;20434;-56
2022/10/07 05:08:59;;;;;;;14.77;10.68;;;12.20;99.90;;;;;;4960256;28;20095;-57
2022/10/07 05:11:27;;;;;;;18.35;13.05;;;12.20;99.90;;;;;;4960161;28;20283;-57
2022/10/07 05:14:00;;;;;;;20.25;13.45;;;12.20;99.90;;;;;;4962003;28;20048;-56
2022/10/07 05:16:29;;;;;;;18.50;12.18;;;12.20;99.90;;;;;;4965203;28;20627;-57
2022/10/07 05:18:57;;;;;;;17.77;12.90;;;12.20;99.90;;;;;;4947926;28;20159;-55
2022/10/07 05:21:24;;;;;;;17.30;13.38;;;12.20;99.90;;;;;;4953681;28;20467;-55
2022/10/07 05:23:51;;;;;;;15.40;11.88;;;12.10;99.90;;;;;;4962110;28;20673;-56
2022/10/07 05:26:24;;;;;;;16.25;11.90;;;12.10;99.90;;;;;;4963560;28;20041;-56
2022/10/07 05:28:55;;;;;;;14.95;10.70;;;12.10;99.90;;;;;;4953972;28;20206;-57
2022/10/07 05:31:29;;;;;;;17.90;10.50;;;12.00;99.90;;;;;;4969017;28;20053;-55
2022/10/07 05:33:59;;;;;;;14.00;10.88;;;12.10;99.90;;;;;;4952117;28;20483;-57
2022/10/07 05:36:27;;;;;;;15.32;10.93;;;12.10;99.90;;;;;;4956873;28;20041;-57
2022/10/07 05:38:57;;;;;;;13.30;10.65;;;12.00;99.90;;;;;;4951734;28;20518;-56
2022/10/07 05:41:32;;;;;;;16.30;11.23;;;12.00;99.90;;;;;;4959387;28;20053;-57
2022/10/07 05:44:11;;;;;;;15.52;10.55;;;12.00;99.90;;;;;;4959451;28;20325;-55
2022/10/07 05:46:39;;;;;;;19.30;12.82;;;12.00;99.90;;;;;;4954258;28;20453;-57
2022/10/07 05:49:06;;;;;;;17.70;11.88;;;12.00;99.90;;;;;;4963604;28;20849;-57
2022/10/07 05:51:35;;;;;;;13.82;11.73;;;12.00;99.90;;;;;;4961234;28;20045;-57
2022/10/07 05:54:02;;;;;;;20.05;11.57;;;12.00;99.90;;;;;;4959834;28;20478;-56
2022/10/07 05:56:37;;;;;;;18.13;13.20;;;12.00;99.90;;;;;;4962461;28;20115;-57
2022/10/07 05:59:04;;;;;;;15.02;11.27;;;12.00;99.90;;;;;;4962385;28;20068;-55
2022/10/07 06:01:32;;;;;;;15.25;11.43;;;12.00;99.90;;;;;;4951139;28;20487;-55
2022/10/07 06:04:06;;;;;;;12.98;10.48;;;12.10;99.90;;;;;;4952418;28;20057;-58
2022/10/07 06:06:37;;;;;;;14.13;11.35;;;12.00;99.90;;;;;;4959028;28;20288;-55
2022/10/07 06:14:40;;;;;;;13.68;10.07;;;12.00;99.90;;;;;;4963774;28;20840;-53
2022/10/07 06:17:08;;;;;;;20.42;13.52;;;12.00;99.90;;;;;;4946169;28;20393;-54
2022/10/07 06:19:36;;;;;;;15.73;11.52;;;12.00;99.90;;;;;;4963511;28;20288;-54
2022/10/07 06:22:04;;;;;;;14.25;10.57;;;12.00;99.90;;;;;;4960707;28;20746;-54
2022/10/07 06:24:34;;;;;;;19.02;13.25;;;12.00;99.90;;;;;;4957412;28;20068;-57
2022/10/07 06:27:01;;;;;;;17.33;11.65;;;12.00;99.90;;;;;;4958678;28;20281;-57
2022/10/07 06:29:29;;;;;;;18.98;12.60;;;12.00;99.90;;;;;;4960286;28;20206;-56
2022/10/07 06:31:57;;;;;;;16.15;12.05;;;12.10;99.90;;;;;;4965088;28;20214;-57
2022/10/07 06:34:24;;;;;;;17.55;12.52;;;12.10;99.90;;;;;;4964960;28;20199;-57
2022/10/07 06:36:53;;;;;;;17.88;12.02;;;12.10;99.90;;;;;;4959178;28;20322;-58
2022/10/07 06:39:21;;;;;;;14.18;11.35;;;12.10;99.90;;;;;;4968403;28;20337;-58
2022/10/07 06:41:53;;;;;;;17.70;12.48;;;12.10;99.90;;;;;;4959281;28;20563;-57
2022/10/07 06:44:30;;;;;;;20.90;12.48;;;12.10;99.90;;;;;;4960007;28;20299;-57
2022/10/07 06:46:57;;;;;;;17.05;12.10;;;12.10;99.90;;;;;;4960750;28;20416;-60
2022/10/07 06:49:25;;;;;;;15.85;13.13;;;12.10;99.90;;;;;;4968885;28;20041;-58
2022/10/07 06:51:53;;;;;;;16.08;12.13;;;12.20;99.90;;;;;;4965213;28;20519;-56
2022/10/07 06:54:21;;;;;;;20.50;12.82;;;12.20;99.90;;;;;;4965002;28;20485;-58
2022/10/07 06:56:48;;;;;;;19.10;13.35;;;12.20;99.90;;;;;;4966578;28;20369;-57
2022/10/07 06:59:15;;;;;;;17.23;13.25;;;12.20;99.90;;;;;;4965905;28;20049;-58
2022/10/07 07:01:52;;;;;;;22.73;14.40;;;12.30;99.90;;;;;;4963858;28;20371;-55
2022/10/07 07:04:20;;;;;;;19.33;14.02;;;12.20;99.90;;;;;;4966680;28;20049;-56
2022/10/07 07:06:47;;;;;;;18.73;13.63;;;12.20;99.90;;;;;;4966908;28;20043;-57
2022/10/07 07:09:15;;;;;;;19.35;14.23;;;12.20;99.90;;;;;;4961947;28;20348;-54
2022/10/07 07:11:44;;;;;;;19.60;13.43;;;12.20;99.90;;;;;;4962375;28;20157;-56
2022/10/07 07:14:18;;;;;;;14.98;11.35;;;12.20;99.90;;;;;;4963369;28;20349;-54
2022/10/07 07:16:52;;;;;;;18.67;13.07;;;12.20;99.90;;;;;;4963143;28;20068;-56
2022/10/07 07:19:22;;;;;;;17.83;13.15;;;12.20;99.90;;;;;;4966578;28;20806;-55
2022/10/07 07:21:49;;;;;;;;;;;12.20;99.90;;;;;;4965096;28;20206;-56
2022/10/07 07:24:19;;;;;;;22.33;13.18;;;12.20;99.90;;;;;;4952441;28;20185;-55
2022/10/07 07:26:47;;;;;;;18.67;12.90;;;12.20;99.90;;;;;;4962530;28;20408;-55
2022/10/07 07:29:15;;;;;;;17.98;13.20;;;12.20;99.90;;;;;;4967286;28;20397;-55
2022/10/07 07:31:49;;;;;;;15.18;12.50;;;12.30;99.90;;;;;;4968073;28;20264;-54
2022/10/07 07:34:19;;;;;;;18.88;12.88;;;12.30;99.90;;;;;;4964421;28;20423;-55
2022/10/07 07:36:52;;;;;;;18.25;12.40;;;12.30;99.90;;;;;;4963513;28;20349;-55
2022/10/07 07:39:23;;;;;;;17.17;12.80;;;12.40;99.90;;;;;;4975121;28;20531;-55
2022/10/07 07:41:56;;;;;;;19.42;12.85;;;12.40;99.90;;;;;;4954756;28;20556;-55
2022/10/07 07:44:24;;;;;;;14.07;10.93;;;12.50;99.90;;;;;;4972597;28;20037;-56
2022/10/07 07:46:54;;;;;;;18.02;12.82;;;12.50;99.90;;;;;;4961327;28;20373;-56
2022/10/07 07:49:23;;;;;;;18.10;12.65;;;12.60;99.90;;;;;;4947641;28;20365;-54
2022/10/07 07:51:51;;;;;;;17.88;13.40;;;12.60;99.90;;;;;;4964392;28;20550;-56
2022/10/07 07:54:26;;;;;;;17.55;13.85;;;12.70;99.90;;;;;;4960038;28;20393;-56
2022/10/07 07:56:54;;;;;;;20.10;12.18;;;12.70;99.90;;;;;;4957212;28;20365;-55
2022/10/07 07:59:24;;;;;;;19.52;12.95;;;12.80;99.90;;;;;;4960715;28;20409;-56
2022/10/07 08:01:52;;;;;;;17.13;11.43;;;12.80;99.90;;;;;;4963994;28;20057;-55
2022/10/07 08:04:20;;;;;;;20.63;12.85;;;12.80;99.90;;;;;;4967159;28;20552;-54
2022/10/07 08:06:47;;;;;;;16.48;10.90;;;12.90;99.90;;;;;;4949596;28;20282;-65
2022/10/07 08:09:14;;;;;;;16.80;12.27;;;12.90;99.90;;;;;;4960845;28;20045;-54
2022/10/07 08:11:44;;;;;;;18.73;14.13;;;12.90;99.90;;;;;;4955675;28;20569;-55
2022/10/07 08:14:15;;;;;;;19.77;12.85;;;12.90;99.90;;;;;;4965085;28;20154;-55
2022/10/07 08:16:43;;;;;;;19.42;12.80;;;13.00;99.90;;;;;;4961057;28;20681;-55
2022/10/07 08:19:11;;;;;;;17.80;13.45;;;13.00;99.90;;;;;;4965128;28;20470;-54
2022/10/07 08:21:38;;;;;;;20.88;14.27;;;13.00;99.90;;;;;;4946912;28;20099;-55
2022/10/07 08:24:11;;;;;;;25.60;14.73;;;13.00;99.90;;;;;;4963499;28;20365;-55
2022/10/07 08:26:38;;;;;;;18.83;13.57;;;13.10;99.90;;;;;;4967149;28;20614;-53
2022/10/07 08:29:10;;;;;;;16.58;12.43;;;13.10;99.90;;;;;;4973205;28;20320;-55
2022/10/07 08:31:37;;;;;;;20.35;13.82;;;13.10;99.90;;;;;;4962936;28;20271;-54
2022/10/07 08:34:05;;;;;;;21.25;14.35;;;13.10;99.90;;;;;;4965521;28;20171;-58
2022/10/07 08:36:32;;;;;;;18.70;14.15;;;13.10;99.90;;;;;;4955333;28;20330;-57
2022/10/07 08:39:00;;;;;;;18.48;12.55;;;13.20;99.90;;;;;;4964862;28;20302;-57
2022/10/07 08:41:33;;;;;;;16.33;12.02;;;13.20;99.90;;;;;;4958113;28;20424;-55
2022/10/07 08:44:12;;;;;;;19.10;12.48;;;13.20;99.90;;;;;;4962039;28;20502;-53
2022/10/07 08:46:48;;;;;;;17.85;13.05;;;13.30;99.90;;;;;;4955812;28;20291;-56
2022/10/07 08:49:19;;;;;;;20.35;15.25;;;13.30;99.90;;;;;;4959119;28;20344;-56
2022/10/07 08:51:53;;;;;;;21.50;13.10;;;13.40;99.90;;;;;;4954433;28;20226;-55
2022/10/07 08:54:29;;;;;;;20.45;14.32;;;13.40;99.90;;;;;;4958669;28;20041;-55
2022/10/07 08:57:06;;;;;;;21.40;14.25;;;13.50;99.90;;;;;;4973408;28;20210;-54
2022/10/07 08:59:35;;;;;;;23.48;15.77;;;13.60;99.90;;;;;;4964084;28;20270;-55
2022/10/07 09:02:30;;;;;;;22.17;14.27;;;13.60;99.90;;;;;;4967418;28;20041;-55
2022/10/07 09:05:20;;;;;;;22.00;14.73;;;13.70;99.90;;;;;;4957390;28;20382;-56
2022/10/07 09:07:52;;;;;;;23.08;14.00;;;13.80;99.90;;;;;;4960212;28;20502;-53
2022/10/07 09:10:43;;;;;;;22.40;15.55;;;13.80;99.90;;;;;;4960249;28;20353;-54
2022/10/07 09:13:19;;;;;;;25.73;15.43;;;13.90;99.90;;;;;;4956953;28;20462;-54
2022/10/07 09:16:10;;;;;;;23.67;15.45;;;13.90;99.90;;;;;;4978688;28;20411;-55
2022/10/07 09:18:59;;;;;;;21.23;14.77;;;14.10;99.90;;;;;;4960143;28;20243;-54
2022/10/07 09:21:35;;;;;;;21.42;13.93;;;14.10;99.90;;;;;;4956478;28;20084;-55
2022/10/07 09:24:35;;;;;;;19.98;14.57;;;14.20;99.90;;;;;;4956908;28;20052;-58
2022/10/07 09:27:12;;;;;;;28.27;15.32;;;14.20;99.90;;;;;;4940523;28;20307;-56
2022/10/07 09:29:39;;;;;;;20.95;14.43;;;14.20;99.90;;;;;;4959361;28;20408;-54
2022/10/07 09:32:13;;;;;;;23.90;14.40;;;14.40;99.90;;;;;;4962757;28;20054;-53
2022/10/07 09:34:40;;;;;;;18.30;13.25;;;14.40;99.90;;;;;;4959916;28;20457;-54
2022/10/07 09:37:10;;;;;;;23.13;16.08;;;14.60;99.90;;;;;;4955801;28;20313;-54
2022/10/07 09:39:38;;;;;;;17.10;13.55;;;14.70;99.90;;;;;;4968412;28;20504;-54
2022/10/07 09:42:28;;;;;;;16.15;13.23;;;14.90;99.90;;;;;;4961216;28;20243;-54
2022/10/07 09:45:00;;;;;;;16.67;12.25;;;15.10;99.90;;;;;;4960132;28;20634;-54
2022/10/07 09:47:36;;;;;;;19.95;14.77;;;15.20;99.90;;;;;;4957497;28;20038;-54
2022/10/07 09:50:03;;;;;;;21.33;13.93;;;15.40;99.90;;;;;;4957638;28;20563;-55
2022/10/07 09:52:31;;;;;;;25.20;15.00;;;15.50;99.90;;;;;;4956811;28;20041;-57
2022/10/07 09:55:30;;;;;;;18.27;13.93;;;15.60;99.90;;;;;;4960803;28;20349;-54
2022/10/07 09:58:02;;;;;;;15.93;12.68;;;15.70;99.90;;;;;;4947984;28;20060;-56
2022/10/07 10:00:30;;;;;;;20.73;14.00;;;16.00;99.90;;;;;;4958738;28;20282;-55
2022/10/07 10:03:04;;;;;;;19.75;12.68;;;16.40;99.90;;;;;;4953275;28;20350;-56
2022/10/07 10:05:40;;;;;;;18.65;14.15;;;16.80;99.90;;;;;;4959587;28;20375;-54
2022/10/07 10:08:10;;;;;;;16.02;13.05;;;17.00;99.90;;;;;;4974163;28;20538;-55
2022/10/07 10:10:37;;;;;;;20.02;13.25;;;17.20;99.90;;;;;;4958508;28;20239;-56
2022/10/07 10:13:05;;;;;;;15.80;12.38;;;17.20;99.90;;;;;;4958838;28;20416;-58
2022/10/07 10:15:35;;;;;;;14.52;11.38;;;17.10;99.90;;;;;;4956441;28;20194;-55
2022/10/07 10:18:38;;;;;;;23.90;13.77;;;17.10;99.90;;;;;;4957540;28;20619;-56
2022/10/07 10:21:26;;;;;;;13.82;11.65;;;17.20;99.90;;;;;;4958666;28;20041;-57
2022/10/07 10:24:00;;;;;;;;;;;17.30;99.90;;;;;;4963298;28;20502;-55
2022/10/07 10:26:42;;;;;;;16.08;11.82;;;17.60;99.90;;;;;;4971888;28;20133;-56
2022/10/07 10:29:24;;;;;;;14.95;11.85;;;18.10;99.90;;;;;;4955707;28;20291;-56
2022/10/07 10:32:00;;;;;;;13.45;10.50;;;18.80;99.90;;;;;;4955589;28;20045;-55
2022/10/07 10:34:52;;;;;;;27.45;11.13;;;19.20;99.90;;;;;;4960510;28;20724;-54
2022/10/07 10:37:41;;;;;;;14.02;9.93;;;19.50;99.90;;;;;;4962236;28;20180;-55
2022/10/07 10:40:39;;;;;;;13.75;9.13;;;19.70;99.90;;;;;;4932164;28;20347;-54
2022/10/07 10:43:24;;;;;;;20.60;10.90;;;19.90;99.90;;;;;;4959992;28;20393;-54
2022/10/07 10:46:10;;;;;;;13.75;10.30;;;19.90;99.90;;;;;;4954433;28;20053;-57
2022/10/07 10:48:54;;;;;;;15.77;9.93;;;19.70;99.90;;;;;;4956103;28;20152;-60
2022/10/07 10:51:32;;;;;;;13.00;9.60;;;19.60;99.90;;;;;;4957712;28;20245;-59
2022/10/07 10:54:15;;;;;;;10.25;8.38;;;19.50;99.90;;;;;;4970592;28;20295;-60
2022/10/07 10:57:03;;;;;;;14.85;10.45;;;19.50;99.90;;;;;;4958899;28;20214;-57
2022/10/07 11:00:03;;;;;;;22.67;13.05;;;19.30;99.90;;;;;;4960012;28;20795;-59
2022/10/07 11:02:30;;;;;;;14.93;11.60;;;19.20;99.90;;;;;;4963729;28;20033;-60
2022/10/07 11:05:00;;;;;;;14.60;10.73;;;19.10;99.90;;;;;;4960783;28;20095;-58
2022/10/07 11:07:42;;;;;;;18.98;12.52;;;19.00;99.90;;;;;;4958434;28;20665;-57
2022/10/07 11:10:22;;;;;;;17.35;11.25;;;19.10;99.90;;;;;;4957120;28;20321;-59
2022/10/07 11:13:01;;;;;;;17.10;12.05;;;19.20;99.90;;;;;;4944158;28;20443;-60
2022/10/07 11:15:34;;;;;;;14.85;10.98;;;19.30;99.90;;;;;;4956819;28;20365;-60
2022/10/07 11:18:07;;;;;;;14.70;11.52;;;19.50;99.90;;;;;;4965251;28;20352;-57
2022/10/07 11:20:47;;;;;;;16.02;12.68;;;19.60;99.90;;;;;;4960868;28;20223;-54
2022/10/07 11:23:49;;;;;;;17.25;11.77;;;19.90;99.90;;;;;;4958626;28;20408;-55
2022/10/07 11:26:26;;;;;;;18.02;13.13;;;20.50;99.90;;;;;;4960073;28;20495;-55
2022/10/07 11:29:09;;;;;;;19.83;12.07;;;21.00;99.90;;;;;;4957455;28;20306;-55
2022/10/07 11:31:41;;;;;;;16.95;12.85;;;21.50;99.90;;;;;;4949953;28;20724;-54
2022/10/07 11:34:43;;;;;;;23.33;13.30;;;21.90;99.90;;;;;;4959349;28;20159;-54
2022/10/07 11:37:25;;;;;;;15.93;11.93;;;22.20;99.90;;;;;;4925290;28;20367;-55
2022/10/07 11:39:53;;;;;;;16.55;9.80;;;22.50;99.90;;;;;;4961624;28;20142;-54
2022/10/07 11:42:30;;;;;;;21.55;12.43;;;22.80;99.90;;;;;;4945604;28;20486;-56
2022/10/07 11:45:15;;;;;;;15.60;12.55;;;22.90;99.90;;;;;;4962011;28;20050;-55
2022/10/07 11:47:52;;;;;;;15.48;11.20;;;22.90;99.90;;;;;;4971271;28;20404;-56
2022/10/07 11:50:26;;;;;;;22.10;11.02;;;23.10;99.90;;;;;;4967027;28;20037;-55
2022/10/07 11:53:00;;;;;;;17.73;10.50;;;23.30;99.90;;;;;;4960400;28;20384;-56
2022/10/07 11:55:47;;;;;;;18.00;10.45;;;23.50;99.90;;;;;;4966819;28;20049;-56
2022/10/07 11:58:35;;;;;;;12.77;10.73;;;23.60;99.20;;;;;;4946258;28;20355;-55
2022/10/07 12:01:24;;;;;;;14.35;10.52;;;23.80;99.90;;;;;;4960395;28;20493;-55
2022/10/07 12:04:12;;;;;;;11.85;9.23;;;23.80;97.50;;;;;;4961873;28;20559;-55
2022/10/07 12:06:59;;;;;;;18.35;13.70;;;23.70;96.20;;;;;;4960167;28;20281;-54
2022/10/07 12:10:16;;;;;;;23.85;12.85;;;23.80;94.10;;;;;;4964754;28;20371;-55
2022/10/07 12:12:44;;;;;;;11.30;9.75;;;23.80;93.90;;;;;;4959572;28;20075;-55
2022/10/07 12:15:29;;;;;;;17.63;10.50;;;23.90;96.80;;;;;;4959955;28;20143;-54
2022/10/07 12:18:05;;;;;;;17.20;12.43;;;23.90;93.70;;;;;;4960831;28;20330;-55
2022/10/07 12:20:35;;;;;;;12.25;9.02;;;24.00;93.00;;;;;;4961040;28;20049;-55
2022/10/07 12:25:51;;;;;;;16.08;10.30;;;24.00;95.20;;;;;;4961380;28;20425;-55
2022/10/07 12:28:21;;;;;;;17.38;11.45;;;24.00;95.40;;;;;;4963468;28;20330;-55
2022/10/07 12:30:54;;;;;;;15.52;10.40;;;23.90;96.50;;;;;;4951542;28;20638;-54
2022/10/07 12:33:32;;;;;;;13.23;9.57;;;23.70;98.20;;;;;;4958591;28;20266;-55
2022/10/07 12:36:26;;;;;;;15.60;12.77;;;23.40;99.60;;;;;;4960010;28;20298;-55
2022/10/07 12:38:54;;;;;;;12.10;10.00;;;23.10;99.90;;;;;;4962849;28;20669;-55
2022/10/07 12:41:39;;;;;;;15.40;10.45;;;22.80;99.90;;;;;;4956424;28;20084;-54
2022/10/07 12:44:19;;;;;;;17.27;13.75;;;22.60;99.90;;;;;;4944948;28;20416;-54
2022/10/07 12:46:51;;;;;;;16.58;13.30;;;22.40;99.90;;;;;;4962895;28;20687;-54
2022/10/07 12:53:13;;;;;;;18.83;12.45;;;22.10;99.90;;;;;;5754771;23;20174;-53
2022/10/07 12:55:47;;;;;;;20.80;14.63;;;21.80;99.90;;;;;;4893951;29;20049;-53
2022/10/07 13:01:52;;;;;;;20.45;15.32;;;21.50;99.90;;;;;;4894421;29;20051;-53
2022/10/07 13:04:27;;;;;;;23.45;14.35;;;21.60;99.90;;;;;;4874295;29;20461;-52
2022/10/07 13:07:09;;;;;;;21.20;16.88;;;21.80;99.90;;;;;;4869955;29;20045;-52
2022/10/07 13:09:47;;;;;;;21.38;14.60;;;21.90;99.90;;;;;;4874988;29;20048;-54
2022/10/07 13:12:38;;;;;;;22.60;16.70;;;22.20;99.90;;;;;;4873326;29;20053;-54
2022/10/07 13:15:40;;;;;;;16.30;13.70;;;22.40;99.90;;;;;;4870690;29;20099;-54
2022/10/07 13:18:27;;;;;;;19.65;14.82;;;22.50;99.90;;;;;;4873427;29;20695;-53